sensor_id;sensor_type;location;lat;lon;timestamp;P1;durP1;ratioP1;P2;durP2;ratioP2
23402;SDS011;11874;48.228;11.684;2022-10-16T00:00:57;1.50;;;1.40;;
23402;SDS011;11874;48.228;11.684;2022-10-16T00:03:25;1.58;;;1.40;;
23402;SDS011;11874;48.228;11.684;2022-10-16T00:05:58;4.15;;;1.48;;
23402;SDS011;11874;48.228;11.684;2022-10-16T00:08:28;3.73;;;1.40;;
23402;SDS011;11874;48.228;11.684;2022-10-16T00:10:59;1.77;;;1.27;;
23402;SDS011;11874;48.228;11.684;2022-10-16T00:13:28;2.55;;;1.23;;
23402;SDS011;11874;48.228;11.684;2022-10-16T00:15:57;4.60;;;1.60;;
23402;SDS011;11874;48.228;11.684;2022-10-16T00:18:26;1.63;;;1.50;;
23402;SDS011;11874;48.228;11.684;2022-10-16T00:20:55;1.67;;;1.38;;
23402;SDS011;11874;48.228;11.684;2022-10-16T00:23:23;2.15;;;1.80;;
23402;SDS011;11874;48.228;11.684;2022-10-16T00:25:56;3.00;;;1.90;;
23402;SDS011;11874;48.228;11.684;2022-10-16T00:28:24;2.35;;;1.63;;
23402;SDS011;11874;48.228;11.684;2022-10-16T00:30:53;1.60;;;1.20;;
23402;SDS011;11874;48.228;11.684;2022-10-16T00:33:20;1.55;;;1.23;;
23402;SDS011;11874;48.228;11.684;2022-10-16T00:35:49;2.90;;;1.63;;
23402;SDS011;11874;48.228;11.684;2022-10-16T00:38:17;3.13;;;1.30;;
23402;SDS011;11874;48.228;11.684;2022-10-16T00:40:45;2.85;;;1.40;;
23402;SDS011;11874;48.228;11.684;2022-10-16T00:43:32;1.88;;;1.30;;
23402;SDS011;11874;48.228;11.684;2022-10-16T00:46:02;3.63;;;1.40;;
23402;SDS011;11874;48.228;11.684;2022-10-16T00:48:33;1.85;;;1.30;;
23402;SDS011;11874;48.228;11.684;2022-10-16T00:51:00;2.13;;;1.38;;
23402;SDS011;11874;48.228;11.684;2022-10-16T00:53:29;3.88;;;1.42;;
23402;SDS011;11874;48.228;11.684;2022-10-16T00:55:57;1.40;;;1.23;;
23402;SDS011;11874;48.228;11.684;2022-10-16T00:58:26;1.92;;;1.30;;
23402;SDS011;11874;48.228;11.684;2022-10-16T01:00:55;3.03;;;1.30;;
23402;SDS011;11874;48.228;11.684;2022-10-16T01:03:24;1.30;;;1.10;;
23402;SDS011;11874;48.228;11.684;2022-10-16T01:08:32;1.88;;;1.33;;
23402;SDS011;11874;48.228;11.684;2022-10-16T01:11:07;1.50;;;1.40;;
23402;SDS011;11874;48.228;11.684;2022-10-16T01:13:47;3.17;;;1.30;;
23402;SDS011;11874;48.228;11.684;2022-10-16T01:16:19;1.20;;;1.10;;
23402;SDS011;11874;48.228;11.684;2022-10-16T01:18:57;1.40;;;1.27;;
23402;SDS011;11874;48.228;11.684;2022-10-16T01:21:30;2.65;;;1.20;;
23402;SDS011;11874;48.228;11.684;2022-10-16T01:24:03;1.25;;;1.15;;
23402;SDS011;11874;48.228;11.684;2022-10-16T01:26:44;2.97;;;1.25;;
23402;SDS011;11874;48.228;11.684;2022-10-16T01:31:53;1.42;;;1.13;;
23402;SDS011;11874;48.228;11.684;2022-10-16T01:34:28;2.17;;;1.50;;
23402;SDS011;11874;48.228;11.684;2022-10-16T01:37:04;1.65;;;1.27;;
23402;SDS011;11874;48.228;11.684;2022-10-16T01:39:37;1.92;;;1.50;;
23402;SDS011;11874;48.228;11.684;2022-10-16T01:42:08;1.40;;;1.30;;
23402;SDS011;11874;48.228;11.684;2022-10-16T01:44:40;3.13;;;1.20;;
23402;SDS011;11874;48.228;11.684;2022-10-16T01:47:10;4.10;;;1.30;;
23402;SDS011;11874;48.228;11.684;2022-10-16T01:49:40;3.05;;;1.27;;
23402;SDS011;11874;48.228;11.684;2022-10-16T01:52:09;2.40;;;1.33;;
23402;SDS011;11874;48.228;11.684;2022-10-16T01:54:41;2.25;;;1.27;;
23402;SDS011;11874;48.228;11.684;2022-10-16T01:57:13;2.78;;;1.35;;
23402;SDS011;11874;48.228;11.684;2022-10-16T01:59:44;1.60;;;1.33;;
23402;SDS011;11874;48.228;11.684;2022-10-16T02:02:15;1.42;;;1.30;;
23402;SDS011;11874;48.228;11.684;2022-10-16T02:04:46;5.95;;;1.25;;
23402;SDS011;11874;48.228;11.684;2022-10-16T02:07:17;1.40;;;1.20;;
23402;SDS011;11874;48.228;11.684;2022-10-16T02:09:45;1.38;;;1.25;;
23402;SDS011;11874;48.228;11.684;2022-10-16T02:12:13;1.65;;;1.23;;
23402;SDS011;11874;48.228;11.684;2022-10-16T02:14:50;1.20;;;1.10;;
23402;SDS011;11874;48.228;11.684;2022-10-16T02:17:19;2.13;;;1.40;;
23402;SDS011;11874;48.228;11.684;2022-10-16T02:19:48;2.78;;;1.00;;
23402;SDS011;11874;48.228;11.684;2022-10-16T02:22:18;3.38;;;1.30;;
23402;SDS011;11874;48.228;11.684;2022-10-16T02:24:52;2.80;;;1.30;;
23402;SDS011;11874;48.228;11.684;2022-10-16T02:27:24;1.58;;;1.33;;
23402;SDS011;11874;48.228;11.684;2022-10-16T02:29:58;2.08;;;1.10;;
23402;SDS011;11874;48.228;11.684;2022-10-16T02:32:34;1.40;;;1.10;;
23402;SDS011;11874;48.228;11.684;2022-10-16T02:35:04;2.00;;;1.20;;
23402;SDS011;11874;48.228;11.684;2022-10-16T02:37:34;4.40;;;1.48;;
23402;SDS011;11874;48.228;11.684;2022-10-16T02:40:03;1.20;;;1.10;;
23402;SDS011;11874;48.228;11.684;2022-10-16T02:42:33;1.30;;;1.15;;
23402;SDS011;11874;48.228;11.684;2022-10-16T02:45:04;1.30;;;1.00;;
23402;SDS011;11874;48.228;11.684;2022-10-16T02:47:33;1.83;;;1.30;;
23402;SDS011;11874;48.228;11.684;2022-10-16T02:50:01;1.60;;;1.40;;
23402;SDS011;11874;48.228;11.684;2022-10-16T02:52:29;1.20;;;1.10;;
23402;SDS011;11874;48.228;11.684;2022-10-16T02:54:57;3.72;;;1.17;;
23402;SDS011;11874;48.228;11.684;2022-10-16T02:57:25;1.33;;;1.20;;
23402;SDS011;11874;48.228;11.684;2022-10-16T02:59:54;2.20;;;1.17;;
23402;SDS011;11874;48.228;11.684;2022-10-16T03:02:23;1.92;;;1.23;;
23402;SDS011;11874;48.228;11.684;2022-10-16T03:04:52;2.10;;;1.30;;
23402;SDS011;11874;48.228;11.684;2022-10-16T03:07:19;3.38;;;1.17;;
23402;SDS011;11874;48.228;11.684;2022-10-16T03:09:48;3.15;;;1.30;;
23402;SDS011;11874;48.228;11.684;2022-10-16T03:12:15;5.03;;;1.40;;
23402;SDS011;11874;48.228;11.684;2022-10-16T03:14:43;1.73;;;1.17;;
23402;SDS011;11874;48.228;11.684;2022-10-16T03:17:11;2.85;;;1.67;;
23402;SDS011;11874;48.228;11.684;2022-10-16T03:19:41;6.20;;;1.20;;
23402;SDS011;11874;48.228;11.684;2022-10-16T03:22:08;1.83;;;1.17;;
23402;SDS011;11874;48.228;11.684;2022-10-16T03:24:36;1.83;;;1.20;;
23402;SDS011;11874;48.228;11.684;2022-10-16T03:27:04;2.97;;;1.40;;
23402;SDS011;11874;48.228;11.684;2022-10-16T03:29:32;2.15;;;1.23;;
23402;SDS011;11874;48.228;11.684;2022-10-16T03:32:00;1.90;;;1.10;;
23402;SDS011;11874;48.228;11.684;2022-10-16T03:34:28;1.67;;;1.40;;
23402;SDS011;11874;48.228;11.684;2022-10-16T03:36:57;3.38;;;1.30;;
23402;SDS011;11874;48.228;11.684;2022-10-16T03:39:25;1.92;;;1.38;;
23402;SDS011;11874;48.228;11.684;2022-10-16T03:41:53;2.75;;;1.25;;
23402;SDS011;11874;48.228;11.684;2022-10-16T03:44:21;1.25;;;1.15;;
23402;SDS011;11874;48.228;11.684;2022-10-16T03:46:49;1.92;;;1.48;;
23402;SDS011;11874;48.228;11.684;2022-10-16T03:49:17;3.38;;;1.20;;
23402;SDS011;11874;48.228;11.684;2022-10-16T03:51:44;2.88;;;1.20;;
23402;SDS011;11874;48.228;11.684;2022-10-16T03:54:14;1.70;;;1.30;;
23402;SDS011;11874;48.228;11.684;2022-10-16T03:56:41;1.70;;;1.33;;
23402;SDS011;11874;48.228;11.684;2022-10-16T03:59:09;1.92;;;1.52;;
23402;SDS011;11874;48.228;11.684;2022-10-16T04:01:37;1.40;;;1.30;;
23402;SDS011;11874;48.228;11.684;2022-10-16T04:04:05;1.67;;;1.15;;
23402;SDS011;11874;48.228;11.684;2022-10-16T04:06:33;2.10;;;1.40;;
23402;SDS011;11874;48.228;11.684;2022-10-16T04:09:01;1.80;;;1.38;;
23402;SDS011;11874;48.228;11.684;2022-10-16T04:11:30;2.28;;;1.30;;
23402;SDS011;11874;48.228;11.684;2022-10-16T04:13:58;2.00;;;1.10;;
23402;SDS011;11874;48.228;11.684;2022-10-16T04:16:26;1.60;;;1.20;;
23402;SDS011;11874;48.228;11.684;2022-10-16T04:18:54;2.90;;;1.30;;
23402;SDS011;11874;48.228;11.684;2022-10-16T04:21:22;1.70;;;1.33;;
23402;SDS011;11874;48.228;11.684;2022-10-16T04:23:50;4.90;;;1.25;;
23402;SDS011;11874;48.228;11.684;2022-10-16T04:26:18;1.38;;;1.00;;
23402;SDS011;11874;48.228;11.684;2022-10-16T04:28:47;4.18;;;1.30;;
23402;SDS011;11874;48.228;11.684;2022-10-16T04:31:15;2.92;;;1.30;;
23402;SDS011;11874;48.228;11.684;2022-10-16T04:33:43;1.40;;;1.30;;
23402;SDS011;11874;48.228;11.684;2022-10-16T04:36:11;1.17;;;1.00;;
23402;SDS011;11874;48.228;11.684;2022-10-16T04:38:39;1.58;;;1.10;;
23402;SDS011;11874;48.228;11.684;2022-10-16T04:41:07;4.03;;;1.30;;
23402;SDS011;11874;48.228;11.684;2022-10-16T04:43:35;1.45;;;1.00;;
23402;SDS011;11874;48.228;11.684;2022-10-16T04:46:04;1.08;;;0.90;;
23402;SDS011;11874;48.228;11.684;2022-10-16T04:48:32;2.78;;;1.30;;
23402;SDS011;11874;48.228;11.684;2022-10-16T04:51:00;2.90;;;1.27;;
23402;SDS011;11874;48.228;11.684;2022-10-16T04:53:28;3.17;;;1.30;;
23402;SDS011;11874;48.228;11.684;2022-10-16T04:55:56;4.03;;;1.00;;
23402;SDS011;11874;48.228;11.684;2022-10-16T04:58:24;3.15;;;1.10;;
23402;SDS011;11874;48.228;11.684;2022-10-16T05:00:51;2.53;;;1.20;;
23402;SDS011;11874;48.228;11.684;2022-10-16T05:03:21;2.00;;;1.10;;
23402;SDS011;11874;48.228;11.684;2022-10-16T05:05:49;3.38;;;1.25;;
23402;SDS011;11874;48.228;11.684;2022-10-16T05:08:17;2.03;;;1.10;;
23402;SDS011;11874;48.228;11.684;2022-10-16T05:10:45;4.43;;;1.20;;
23402;SDS011;11874;48.228;11.684;2022-10-16T05:13:13;4.00;;;1.30;;
23402;SDS011;11874;48.228;11.684;2022-10-16T05:15:40;3.03;;;1.23;;
23402;SDS011;11874;48.228;11.684;2022-10-16T05:18:08;3.25;;;1.60;;
23402;SDS011;11874;48.228;11.684;2022-10-16T05:20:38;2.60;;;1.40;;
23402;SDS011;11874;48.228;11.684;2022-10-16T05:23:05;1.58;;;1.20;;
23402;SDS011;11874;48.228;11.684;2022-10-16T05:25:33;2.85;;;1.30;;
23402;SDS011;11874;48.228;11.684;2022-10-16T05:28:01;4.50;;;1.40;;
23402;SDS011;11874;48.228;11.684;2022-10-16T05:30:29;2.55;;;1.15;;
23402;SDS011;11874;48.228;11.684;2022-10-16T05:32:57;4.22;;;1.40;;
23402;SDS011;11874;48.228;11.684;2022-10-16T05:35:25;2.45;;;1.33;;
23402;SDS011;11874;48.228;11.684;2022-10-16T05:37:54;2.17;;;1.33;;
23402;SDS011;11874;48.228;11.684;2022-10-16T05:40:22;2.70;;;1.30;;
23402;SDS011;11874;48.228;11.684;2022-10-16T05:42:54;2.55;;;1.30;;
23402;SDS011;11874;48.228;11.684;2022-10-16T05:45:22;2.45;;;1.23;;
23402;SDS011;11874;48.228;11.684;2022-10-16T05:47:50;1.52;;;1.13;;
23402;SDS011;11874;48.228;11.684;2022-10-16T05:50:18;1.80;;;1.50;;
23402;SDS011;11874;48.228;11.684;2022-10-16T05:52:46;3.25;;;1.40;;
23402;SDS011;11874;48.228;11.684;2022-10-16T05:55:15;3.13;;;1.60;;
23402;SDS011;11874;48.228;11.684;2022-10-16T05:57:43;2.47;;;1.50;;
23402;SDS011;11874;48.228;11.684;2022-10-16T06:00:11;1.30;;;1.20;;
23402;SDS011;11874;48.228;11.684;2022-10-16T06:02:39;3.95;;;1.30;;
23402;SDS011;11874;48.228;11.684;2022-10-16T06:05:07;1.80;;;1.20;;
23402;SDS011;11874;48.228;11.684;2022-10-16T06:07:35;2.95;;;1.33;;
23402;SDS011;11874;48.228;11.684;2022-10-16T06:10:04;2.20;;;1.33;;
23402;SDS011;11874;48.228;11.684;2022-10-16T06:12:34;1.45;;;1.33;;
23402;SDS011;11874;48.228;11.684;2022-10-16T06:15:02;3.78;;;1.40;;
23402;SDS011;11874;48.228;11.684;2022-10-16T06:17:30;1.40;;;1.30;;
23402;SDS011;11874;48.228;11.684;2022-10-16T06:19:58;4.10;;;1.60;;
23402;SDS011;11874;48.228;11.684;2022-10-16T06:22:25;3.72;;;1.48;;
23402;SDS011;11874;48.228;11.684;2022-10-16T06:24:54;3.45;;;1.40;;
23402;SDS011;11874;48.228;11.684;2022-10-16T06:27:22;5.50;;;1.35;;
23402;SDS011;11874;48.228;11.684;2022-10-16T06:29:51;2.47;;;1.48;;
23402;SDS011;11874;48.228;11.684;2022-10-16T06:32:19;2.20;;;1.70;;
23402;SDS011;11874;48.228;11.684;2022-10-16T06:34:47;2.10;;;1.30;;
23402;SDS011;11874;48.228;11.684;2022-10-16T06:37:15;3.45;;;2.10;;
23402;SDS011;11874;48.228;11.684;2022-10-16T06:39:43;2.90;;;1.33;;
23402;SDS011;11874;48.228;11.684;2022-10-16T06:42:11;3.38;;;1.50;;
23402;SDS011;11874;48.228;11.684;2022-10-16T06:44:39;1.58;;;1.45;;
23402;SDS011;11874;48.228;11.684;2022-10-16T06:47:08;5.72;;;1.50;;
23402;SDS011;11874;48.228;11.684;2022-10-16T06:49:36;1.70;;;1.40;;
23402;SDS011;11874;48.228;11.684;2022-10-16T06:52:04;2.20;;;1.50;;
23402;SDS011;11874;48.228;11.684;2022-10-16T06:54:32;2.28;;;1.38;;
23402;SDS011;11874;48.228;11.684;2022-10-16T06:57:07;1.48;;;1.38;;
23402;SDS011;11874;48.228;11.684;2022-10-16T06:59:35;2.08;;;1.85;;
23402;SDS011;11874;48.228;11.684;2022-10-16T07:02:03;3.17;;;1.55;;
23402;SDS011;11874;48.228;11.684;2022-10-16T07:04:34;2.33;;;1.75;;
23402;SDS011;11874;48.228;11.684;2022-10-16T07:07:03;3.70;;;1.85;;
23402;SDS011;11874;48.228;11.684;2022-10-16T07:09:34;1.55;;;1.45;;
23402;SDS011;11874;48.228;11.684;2022-10-16T07:12:02;2.05;;;1.80;;
23402;SDS011;11874;48.228;11.684;2022-10-16T07:14:30;2.15;;;1.50;;
23402;SDS011;11874;48.228;11.684;2022-10-16T07:16:58;2.63;;;1.45;;
23402;SDS011;11874;48.228;11.684;2022-10-16T07:19:26;1.70;;;1.42;;
23402;SDS011;11874;48.228;11.684;2022-10-16T07:22:00;1.65;;;1.50;;
23402;SDS011;11874;48.228;11.684;2022-10-16T07:24:29;4.05;;;1.75;;
23402;SDS011;11874;48.228;11.684;2022-10-16T07:26:57;2.88;;;1.50;;
23402;SDS011;11874;48.228;11.684;2022-10-16T07:29:25;5.22;;;1.67;;
23402;SDS011;11874;48.228;11.684;2022-10-16T07:31:53;8.93;;;2.20;;
23402;SDS011;11874;48.228;11.684;2022-10-16T07:34:21;1.77;;;1.52;;
23402;SDS011;11874;48.228;11.684;2022-10-16T07:36:49;4.45;;;2.00;;
23402;SDS011;11874;48.228;11.684;2022-10-16T07:39:18;2.30;;;1.80;;
23402;SDS011;11874;48.228;11.684;2022-10-16T07:41:46;5.95;;;1.75;;
23402;SDS011;11874;48.228;11.684;2022-10-16T07:44:15;2.53;;;1.63;;
23402;SDS011;11874;48.228;11.684;2022-10-16T07:46:43;2.00;;;1.75;;
23402;SDS011;11874;48.228;11.684;2022-10-16T07:49:11;1.90;;;1.50;;
23402;SDS011;11874;48.228;11.684;2022-10-16T07:51:39;2.20;;;1.63;;
23402;SDS011;11874;48.228;11.684;2022-10-16T07:54:07;1.77;;;1.67;;
23402;SDS011;11874;48.228;11.684;2022-10-16T07:56:37;4.10;;;1.75;;
23402;SDS011;11874;48.228;11.684;2022-10-16T07:59:09;1.67;;;1.58;;
23402;SDS011;11874;48.228;11.684;2022-10-16T08:01:37;4.50;;;2.55;;
23402;SDS011;11874;48.228;11.684;2022-10-16T08:04:05;5.18;;;1.85;;
23402;SDS011;11874;48.228;11.684;2022-10-16T08:06:35;2.55;;;1.75;;
23402;SDS011;11874;48.228;11.684;2022-10-16T08:09:03;3.45;;;1.73;;
23402;SDS011;11874;48.228;11.684;2022-10-16T08:11:32;2.10;;;1.90;;
23402;SDS011;11874;48.228;11.684;2022-10-16T08:14:01;2.00;;;1.80;;
23402;SDS011;11874;48.228;11.684;2022-10-16T08:16:29;4.00;;;1.92;;
23402;SDS011;11874;48.228;11.684;2022-10-16T08:18:57;2.50;;;1.90;;
23402;SDS011;11874;48.228;11.684;2022-10-16T08:21:25;4.40;;;1.90;;
23402;SDS011;11874;48.228;11.684;2022-10-16T08:23:53;1.80;;;1.70;;
23402;SDS011;11874;48.228;11.684;2022-10-16T08:26:23;2.13;;;1.70;;
23402;SDS011;11874;48.228;11.684;2022-10-16T08:28:52;2.97;;;1.60;;
23402;SDS011;11874;48.228;11.684;2022-10-16T08:31:22;3.22;;;1.90;;
23402;SDS011;11874;48.228;11.684;2022-10-16T08:33:52;3.20;;;1.85;;
23402;SDS011;11874;48.228;11.684;2022-10-16T08:36:20;3.13;;;1.90;;
23402;SDS011;11874;48.228;11.684;2022-10-16T08:38:49;3.42;;;1.92;;
23402;SDS011;11874;48.228;11.684;2022-10-16T08:41:29;2.40;;;1.63;;
23402;SDS011;11874;48.228;11.684;2022-10-16T08:44:26;4.45;;;1.70;;
23402;SDS011;11874;48.228;11.684;2022-10-16T08:47:09;3.90;;;1.70;;
23402;SDS011;11874;48.228;11.684;2022-10-16T08:49:50;5.50;;;1.85;;
23402;SDS011;11874;48.228;11.684;2022-10-16T08:52:24;4.43;;;1.90;;
23402;SDS011;11874;48.228;11.684;2022-10-16T08:54:56;3.45;;;2.08;;
23402;SDS011;11874;48.228;11.684;2022-10-16T08:57:24;3.83;;;2.10;;
23402;SDS011;11874;48.228;11.684;2022-10-16T08:59:53;3.67;;;1.90;;
23402;SDS011;11874;48.228;11.684;2022-10-16T09:02:28;3.92;;;2.42;;
23402;SDS011;11874;48.228;11.684;2022-10-16T09:05:10;3.40;;;2.00;;
23402;SDS011;11874;48.228;11.684;2022-10-16T09:08:06;3.78;;;2.00;;
23402;SDS011;11874;48.228;11.684;2022-10-16T09:10:42;4.25;;;1.90;;
23402;SDS011;11874;48.228;11.684;2022-10-16T09:13:20;3.05;;;1.90;;
23402;SDS011;11874;48.228;11.684;2022-10-16T09:15:55;4.07;;;1.83;;
23402;SDS011;11874;48.228;11.684;2022-10-16T09:18:32;2.58;;;2.38;;
23402;SDS011;11874;48.228;11.684;2022-10-16T09:21:06;2.20;;;2.00;;
23402;SDS011;11874;48.228;11.684;2022-10-16T09:23:38;6.50;;;2.13;;
23402;SDS011;11874;48.228;11.684;2022-10-16T09:26:09;3.35;;;1.90;;
23402;SDS011;11874;48.228;11.684;2022-10-16T09:28:39;2.55;;;2.05;;
23402;SDS011;11874;48.228;11.684;2022-10-16T09:31:10;5.40;;;1.92;;
23402;SDS011;11874;48.228;11.684;2022-10-16T09:33:45;2.58;;;1.90;;
23402;SDS011;11874;48.228;11.684;2022-10-16T09:36:16;3.22;;;1.83;;
23402;SDS011;11874;48.228;11.684;2022-10-16T09:38:45;3.92;;;1.92;;
23402;SDS011;11874;48.228;11.684;2022-10-16T09:41:16;3.10;;;1.70;;
23402;SDS011;11874;48.228;11.684;2022-10-16T09:43:47;4.75;;;1.60;;
23402;SDS011;11874;48.228;11.684;2022-10-16T09:46:21;2.65;;;1.85;;
23402;SDS011;11874;48.228;11.684;2022-10-16T09:48:54;3.80;;;1.90;;
23402;SDS011;11874;48.228;11.684;2022-10-16T09:51:25;3.78;;;1.60;;
23402;SDS011;11874;48.228;11.684;2022-10-16T09:53:55;6.03;;;2.05;;
23402;SDS011;11874;48.228;11.684;2022-10-16T09:56:25;2.50;;;1.90;;
23402;SDS011;11874;48.228;11.684;2022-10-16T09:58:55;2.53;;;1.80;;
23402;SDS011;11874;48.228;11.684;2022-10-16T10:01:24;1.50;;;1.40;;
23402;SDS011;11874;48.228;11.684;2022-10-16T10:03:58;2.20;;;1.40;;
23402;SDS011;11874;48.228;11.684;2022-10-16T10:06:28;2.08;;;1.60;;
23402;SDS011;11874;48.228;11.684;2022-10-16T10:08:59;2.95;;;1.63;;
23402;SDS011;11874;48.228;11.684;2022-10-16T10:11:42;2.60;;;1.67;;
23402;SDS011;11874;48.228;11.684;2022-10-16T10:14:20;3.58;;;1.40;;
23402;SDS011;11874;48.228;11.684;2022-10-16T10:16:50;3.10;;;1.38;;
23402;SDS011;11874;48.228;11.684;2022-10-16T10:19:21;2.80;;;1.65;;
23402;SDS011;11874;48.228;11.684;2022-10-16T10:21:55;4.57;;;1.48;;
23402;SDS011;11874;48.228;11.684;2022-10-16T10:24:23;1.60;;;1.50;;
23402;SDS011;11874;48.228;11.684;2022-10-16T10:26:54;2.25;;;1.52;;
23402;SDS011;11874;48.228;11.684;2022-10-16T10:29:36;2.65;;;2.00;;
23402;SDS011;11874;48.228;11.684;2022-10-16T10:32:18;3.10;;;1.67;;
23402;SDS011;11874;48.228;11.684;2022-10-16T10:35:00;4.50;;;1.80;;
23402;SDS011;11874;48.228;11.684;2022-10-16T10:37:41;1.65;;;1.38;;
23402;SDS011;11874;48.228;11.684;2022-10-16T10:40:22;1.38;;;1.10;;
23402;SDS011;11874;48.228;11.684;2022-10-16T10:42:57;3.53;;;1.40;;
23402;SDS011;11874;48.228;11.684;2022-10-16T10:45:34;2.80;;;1.70;;
23402;SDS011;11874;48.228;11.684;2022-10-16T10:51:17;1.55;;;1.45;;
23402;SDS011;11874;48.228;11.684;2022-10-16T10:53:50;2.03;;;1.45;;
23402;SDS011;11874;48.228;11.684;2022-10-16T10:56:30;3.05;;;1.40;;
23402;SDS011;11874;48.228;11.684;2022-10-16T10:59:16;1.85;;;1.38;;
23402;SDS011;11874;48.228;11.684;2022-10-16T11:02:12;2.25;;;1.08;;
23402;SDS011;11874;48.228;11.684;2022-10-16T11:04:50;3.92;;;1.10;;
23402;SDS011;11874;48.228;11.684;2022-10-16T11:07:50;2.40;;;1.35;;
23402;SDS011;11874;48.228;11.684;2022-10-16T11:10:23;1.25;;;1.13;;
23402;SDS011;11874;48.228;11.684;2022-10-16T11:12:55;1.40;;;1.30;;
23402;SDS011;11874;48.228;11.684;2022-10-16T11:15:28;1.80;;;1.15;;
23402;SDS011;11874;48.228;11.684;2022-10-16T11:17:59;2.08;;;1.13;;
23402;SDS011;11874;48.228;11.684;2022-10-16T11:20:33;1.27;;;1.17;;
23402;SDS011;11874;48.228;11.684;2022-10-16T11:23:07;1.40;;;1.10;;
23402;SDS011;11874;48.228;11.684;2022-10-16T11:25:40;1.52;;;1.05;;
23402;SDS011;11874;48.228;11.684;2022-10-16T11:28:11;1.38;;;1.27;;
23402;SDS011;11874;48.228;11.684;2022-10-16T11:30:43;2.83;;;1.20;;
23402;SDS011;11874;48.228;11.684;2022-10-16T11:33:22;2.22;;;1.23;;
23402;SDS011;11874;48.228;11.684;2022-10-16T11:36:00;2.65;;;1.00;;
23402;SDS011;11874;48.228;11.684;2022-10-16T11:38:32;1.10;;;0.90;;
23402;SDS011;11874;48.228;11.684;2022-10-16T11:41:10;2.03;;;0.93;;
23402;SDS011;11874;48.228;11.684;2022-10-16T11:43:43;2.90;;;0.90;;
23402;SDS011;11874;48.228;11.684;2022-10-16T11:46:17;1.55;;;0.85;;
23402;SDS011;11874;48.228;11.684;2022-10-16T11:48:48;1.70;;;0.77;;
23402;SDS011;11874;48.228;11.684;2022-10-16T11:51:21;2.45;;;0.65;;
23402;SDS011;11874;48.228;11.684;2022-10-16T11:53:56;0.68;;;0.65;;
23402;SDS011;11874;48.228;11.684;2022-10-16T11:56:31;1.55;;;1.05;;
23402;SDS011;11874;48.228;11.684;2022-10-16T11:59:05;1.70;;;0.85;;
23402;SDS011;11874;48.228;11.684;2022-10-16T12:01:38;1.65;;;0.60;;
23402;SDS011;11874;48.228;11.684;2022-10-16T12:04:14;1.38;;;0.80;;
23402;SDS011;11874;48.228;11.684;2022-10-16T12:06:46;1.17;;;0.88;;
23402;SDS011;11874;48.228;11.684;2022-10-16T12:09:21;2.75;;;0.80;;
23402;SDS011;11874;48.228;11.684;2022-10-16T12:11:53;2.20;;;0.77;;
23402;SDS011;11874;48.228;11.684;2022-10-16T12:14:22;2.13;;;0.80;;
23402;SDS011;11874;48.228;11.684;2022-10-16T12:17:23;0.85;;;0.52;;
23402;SDS011;11874;48.228;11.684;2022-10-16T12:20:00;1.10;;;0.75;;
23402;SDS011;11874;48.228;11.684;2022-10-16T12:22:47;1.15;;;0.77;;
23402;SDS011;11874;48.228;11.684;2022-10-16T12:25:22;2.90;;;0.70;;
23402;SDS011;11874;48.228;11.684;2022-10-16T12:27:54;0.80;;;0.70;;
23402;SDS011;11874;48.228;11.684;2022-10-16T12:30:24;0.98;;;0.80;;
23402;SDS011;11874;48.228;11.684;2022-10-16T12:33:00;1.08;;;0.85;;
23402;SDS011;11874;48.228;11.684;2022-10-16T12:35:31;1.08;;;0.80;;
23402;SDS011;11874;48.228;11.684;2022-10-16T12:38:05;2.83;;;0.85;;
23402;SDS011;11874;48.228;11.684;2022-10-16T12:40:36;2.92;;;0.90;;
23402;SDS011;11874;48.228;11.684;2022-10-16T12:43:12;0.80;;;0.80;;
23402;SDS011;11874;48.228;11.684;2022-10-16T12:46:03;1.67;;;0.80;;
23402;SDS011;11874;48.228;11.684;2022-10-16T12:48:33;0.90;;;0.90;;
23402;SDS011;11874;48.228;11.684;2022-10-16T12:51:21;3.03;;;0.80;;
23402;SDS011;11874;48.228;11.684;2022-10-16T12:53:57;0.80;;;0.80;;
23402;SDS011;11874;48.228;11.684;2022-10-16T12:56:30;2.08;;;0.80;;
23402;SDS011;11874;48.228;11.684;2022-10-16T12:59:09;0.77;;;0.75;;
23402;SDS011;11874;48.228;11.684;2022-10-16T13:01:51;0.70;;;0.70;;
23402;SDS011;11874;48.228;11.684;2022-10-16T13:04:36;2.42;;;0.85;;
23402;SDS011;11874;48.228;11.684;2022-10-16T13:07:25;1.45;;;0.85;;
23402;SDS011;11874;48.228;11.684;2022-10-16T13:10:09;2.13;;;0.68;;
23402;SDS011;11874;48.228;11.684;2022-10-16T13:12:54;0.80;;;0.80;;
23402;SDS011;11874;48.228;11.684;2022-10-16T13:15:56;1.50;;;0.80;;
23402;SDS011;11874;48.228;11.684;2022-10-16T13:18:32;1.88;;;0.90;;
23402;SDS011;11874;48.228;11.684;2022-10-16T13:21:12;1.52;;;0.90;;
23402;SDS011;11874;48.228;11.684;2022-10-16T13:23:52;0.70;;;0.70;;
23402;SDS011;11874;48.228;11.684;2022-10-16T13:26:31;1.17;;;0.75;;
23402;SDS011;11874;48.228;11.684;2022-10-16T13:29:09;1.90;;;0.90;;
23402;SDS011;11874;48.228;11.684;2022-10-16T13:31:38;3.20;;;1.05;;
23402;SDS011;11874;48.228;11.684;2022-10-16T13:34:06;1.15;;;1.00;;
23402;SDS011;11874;48.228;11.684;2022-10-16T13:36:43;2.00;;;0.70;;
23402;SDS011;11874;48.228;11.684;2022-10-16T13:39:13;1.40;;;0.80;;
23402;SDS011;11874;48.228;11.684;2022-10-16T13:41:43;0.73;;;0.73;;
23402;SDS011;11874;48.228;11.684;2022-10-16T13:44:14;1.00;;;0.80;;
23402;SDS011;11874;48.228;11.684;2022-10-16T13:46:45;0.70;;;0.68;;
23402;SDS011;11874;48.228;11.684;2022-10-16T13:49:14;0.75;;;0.75;;
23402;SDS011;11874;48.228;11.684;2022-10-16T13:51:53;1.60;;;0.80;;
23402;SDS011;11874;48.228;11.684;2022-10-16T13:54:22;1.02;;;0.80;;
23402;SDS011;11874;48.228;11.684;2022-10-16T13:56:50;1.13;;;0.90;;
23402;SDS011;11874;48.228;11.684;2022-10-16T13:59:36;1.00;;;0.90;;
23402;SDS011;11874;48.228;11.684;2022-10-16T14:02:05;0.80;;;0.73;;
23402;SDS011;11874;48.228;11.684;2022-10-16T14:04:42;0.80;;;0.80;;
23402;SDS011;11874;48.228;11.684;2022-10-16T14:07:12;2.22;;;0.73;;
23402;SDS011;11874;48.228;11.684;2022-10-16T14:09:47;0.65;;;0.65;;
23402;SDS011;11874;48.228;11.684;2022-10-16T14:12:16;0.80;;;0.80;;
23402;SDS011;11874;48.228;11.684;2022-10-16T14:14:50;0.60;;;0.60;;
23402;SDS011;11874;48.228;11.684;2022-10-16T14:17:22;3.03;;;0.63;;
23402;SDS011;11874;48.228;11.684;2022-10-16T14:19:53;0.95;;;0.80;;
23402;SDS011;11874;48.228;11.684;2022-10-16T14:22:30;0.93;;;0.88;;
23402;SDS011;11874;48.228;11.684;2022-10-16T14:25:00;1.23;;;0.70;;
23402;SDS011;11874;48.228;11.684;2022-10-16T14:27:32;1.02;;;0.70;;
23402;SDS011;11874;48.228;11.684;2022-10-16T14:30:14;0.90;;;0.90;;
23402;SDS011;11874;48.228;11.684;2022-10-16T14:32:52;0.88;;;0.88;;
23402;SDS011;11874;48.228;11.684;2022-10-16T14:35:23;0.80;;;0.80;;
23402;SDS011;11874;48.228;11.684;2022-10-16T14:37:53;1.20;;;1.10;;
23402;SDS011;11874;48.228;11.684;2022-10-16T14:40:23;2.17;;;1.15;;
23402;SDS011;11874;48.228;11.684;2022-10-16T14:42:53;2.17;;;0.90;;
23402;SDS011;11874;48.228;11.684;2022-10-16T14:45:23;0.95;;;0.80;;
23402;SDS011;11874;48.228;11.684;2022-10-16T14:47:54;1.33;;;1.10;;
23402;SDS011;11874;48.228;11.684;2022-10-16T14:50:24;1.42;;;0.90;;
23402;SDS011;11874;48.228;11.684;2022-10-16T14:52:53;1.10;;;1.00;;
23402;SDS011;11874;48.228;11.684;2022-10-16T14:55:20;1.85;;;0.90;;
23402;SDS011;11874;48.228;11.684;2022-10-16T14:57:49;3.83;;;0.80;;
23402;SDS011;11874;48.228;11.684;2022-10-16T15:00:23;3.33;;;0.80;;
23402;SDS011;11874;48.228;11.684;2022-10-16T15:02:51;1.10;;;0.93;;
23402;SDS011;11874;48.228;11.684;2022-10-16T15:05:20;1.63;;;1.00;;
23402;SDS011;11874;48.228;11.684;2022-10-16T15:07:50;1.25;;;1.10;;